OCN519 LEPA-EDDF
Flight info
| Callsign | OCN519 |
|---|---|
| Flight time | 1h 53m |
| Altitude | 36000 |
| Route | MEROS DCT LAPIT/N0411F320 DCT CHELY DCT LUMAS DCT MAXIR DCT LUSOL DCT BODRU DCT OKTET DCT IRMAR DCT KINES DCT VANAS DCT MOBLO DCT UBIMA DCT SOSAL DCT KORED DCT BERSU N871 DITON/N0419F350 DCT LADOL/N0423F360 T163 EMPAX EMPAX5B |
| Aircraft | A320/M-SDE2E3FGIJ1LORWXYZ/HB1 |
Departure
| Time | 2026-05-04 17:45 |
|---|---|
| Airport | Palma de Mallorca Airport (LEPA) |
Arrival
| Time | 2026-05-04 19:39 |
|---|---|
| Airport | Frankfurt Main Airport (EDDF) |
| Time | Latitude | Longitude | Altitude | Speed | Heading |
|---|---|---|---|---|---|
| 2026-05-04 16:57 | 39.54472 | 2.73133 | 39 ft | 0 kts | 344° |
| 2026-05-04 17:25 | 39.54465 | 2.73135 | 38 ft | 3 kts | 344° |
| 2026-05-04 17:25 | 39.54425 | 2.73145 | 38 ft | 3 kts | 17° |
| 2026-05-04 17:26 | 39.54392 | 2.73109 | 34 ft | 3 kts | 58° |
| 2026-05-04 17:26 | 39.54385 | 2.73096 | 38 ft | 0 kts | 58° |
| 2026-05-04 17:29 | 39.54473 | 2.73277 | 38 ft | 12 kts | 58° |
| 2026-05-04 17:30 | 39.54643 | 2.73628 | 38 ft | 16 kts | 59° |
| 2026-05-04 17:31 | 39.54745 | 2.73859 | 38 ft | 13 kts | 59° |
| 2026-05-04 17:31 | 39.54937 | 2.73983 | 38 ft | 10 kts | 54° |
| 2026-05-04 17:32 | 39.55084 | 2.73923 | 38 ft | 15 kts | 329° |
| 2026-05-04 17:33 | 39.55479 | 2.73611 | 38 ft | 27 kts | 329° |
| 2026-05-04 17:33 | 39.55607 | 2.73511 | 37 ft | 17 kts | 333° |
| 2026-05-04 17:34 | 39.55796 | 2.73801 | 37 ft | 16 kts | 59° |
| 2026-05-04 17:34 | 39.55851 | 2.73917 | 38 ft | 14 kts | 57° |
| 2026-05-04 17:35 | 39.56052 | 2.74341 | 38 ft | 17 kts | 59° |
| 2026-05-04 17:35 | 39.56084 | 2.74407 | 37 ft | 0 kts | 57° |
| 2026-05-04 17:40 | 39.56101 | 2.74433 | 37 ft | 6 kts | 40° |
| 2026-05-04 17:41 | 39.56135 | 2.74454 | 38 ft | 5 kts | 16° |
| 2026-05-04 17:41 | 39.56186 | 2.74436 | 37 ft | 12 kts | 327° |
| 2026-05-04 17:41 | 39.56247 | 2.74373 | 38 ft | 10 kts | 304° |
| 2026-05-04 17:41 | 39.56239 | 2.74288 | 37 ft | 10 kts | 236° |
| 2026-05-04 17:42 | 39.56231 | 2.74272 | 38 ft | 0 kts | 237° |
| 2026-05-04 17:44 | 39.56220 | 2.74249 | 37 ft | 22 kts | 238° |
| 2026-05-04 17:45 | 39.56004 | 2.73796 | 38 ft | 92 kts | 238° |
| 2026-05-04 17:45 | 39.55568 | 2.72873 | 39 ft | 145 kts | 238° |
| 2026-05-04 17:45 | 39.55012 | 2.71696 | 474 ft | 159 kts | 238° |
| 2026-05-04 17:45 | 39.54431 | 2.70444 | 1122 ft | 164 kts | 237° |
| 2026-05-04 17:46 | 39.53808 | 2.69134 | 1613 ft | 181 kts | 237° |
| 2026-05-04 17:46 | 39.53117 | 2.67680 | 2027 ft | 196 kts | 237° |
| 2026-05-04 17:46 | 39.52397 | 2.66155 | 2786 ft | 200 kts | 238° |
| 2026-05-04 17:46 | 39.51665 | 2.64607 | 3600 ft | 203 kts | 238° |
| 2026-05-04 17:47 | 39.50926 | 2.63048 | 4501 ft | 203 kts | 238° |
| 2026-05-04 17:47 | 39.50172 | 2.61500 | 5334 ft | 206 kts | 234° |
| 2026-05-04 17:47 | 39.49026 | 2.60239 | 5754 ft | 232 kts | 210° |
| 2026-05-04 17:47 | 39.47518 | 2.59250 | 6272 ft | 251 kts | 209° |
| 2026-05-04 17:48 | 39.45934 | 2.58229 | 7066 ft | 257 kts | 209° |
| 2026-05-04 17:48 | 39.44325 | 2.57201 | 7954 ft | 259 kts | 208° |
| 2026-05-04 17:48 | 39.42548 | 2.56679 | 8806 ft | 273 kts | 180° |
| 2026-05-04 17:48 | 39.40726 | 2.57525 | 9661 ft | 291 kts | 151° |
| 2026-05-04 17:49 | 39.39190 | 2.59302 | 10472 ft | 299 kts | 142° |
| 2026-05-04 17:49 | 39.37616 | 2.61140 | 10943 ft | 316 kts | 142° |
| 2026-05-04 17:49 | 39.36011 | 2.63238 | 11285 ft | 338 kts | 137° |
| 2026-05-04 17:49 | 39.34370 | 2.65454 | 11953 ft | 343 kts | 141° |
| 2026-05-04 17:50 | 39.32633 | 2.67588 | 12687 ft | 347 kts | 142° |
| 2026-05-04 17:50 | 39.30838 | 2.69706 | 13367 ft | 353 kts | 143° |
| 2026-05-04 17:50 | 39.29009 | 2.71855 | 14049 ft | 358 kts | 142° |
| 2026-05-04 17:50 | 39.27433 | 2.74412 | 14651 ft | 374 kts | 120° |
| 2026-05-04 17:51 | 39.26762 | 2.77656 | 15240 ft | 388 kts | 97° |
| 2026-05-04 17:51 | 39.26634 | 2.81201 | 15867 ft | 394 kts | 94° |
| 2026-05-04 17:51 | 39.26630 | 2.84713 | 16470 ft | 399 kts | 90° |
| 2026-05-04 17:51 | 39.27002 | 2.88286 | 17063 ft | 407 kts | 77° |
| 2026-05-04 17:52 | 39.27904 | 2.91772 | 17651 ft | 412 kts | 66° |
| 2026-05-04 17:52 | 39.29225 | 2.95074 | 18239 ft | 417 kts | 59° |
| 2026-05-04 17:52 | 39.30867 | 2.98162 | 18734 ft | 419 kts | 45° |
| 2026-05-04 17:52 | 39.33002 | 3.00725 | 19276 ft | 420 kts | 38° |
| 2026-05-04 17:53 | 39.35202 | 3.03220 | 19831 ft | 423 kts | 38° |
| 2026-05-04 17:53 | 39.37431 | 3.05737 | 20319 ft | 427 kts | 38° |
| 2026-05-04 17:53 | 39.39679 | 3.08278 | 20810 ft | 432 kts | 38° |
| 2026-05-04 17:53 | 39.41958 | 3.10856 | 21289 ft | 437 kts | 38° |
| 2026-05-04 17:54 | 39.44257 | 3.13467 | 21756 ft | 442 kts | 38° |
| 2026-05-04 17:54 | 39.46581 | 3.16114 | 22214 ft | 447 kts | 39° |
| 2026-05-04 17:54 | 39.48922 | 3.18795 | 22664 ft | 452 kts | 39° |
| 2026-05-04 17:54 | 39.51285 | 3.21502 | 23125 ft | 456 kts | 39° |
| 2026-05-04 17:55 | 39.53676 | 3.24241 | 23574 ft | 461 kts | 39° |
| 2026-05-04 17:55 | 39.56083 | 3.27003 | 23960 ft | 464 kts | 39° |
| 2026-05-04 17:55 | 39.58509 | 3.29789 | 24366 ft | 467 kts | 39° |
| 2026-05-04 17:55 | 39.60947 | 3.32586 | 24770 ft | 470 kts | 39° |
| 2026-05-04 17:56 | 39.63399 | 3.35395 | 25163 ft | 472 kts | 39° |
| 2026-05-04 17:56 | 39.65872 | 3.38231 | 25565 ft | 475 kts | 39° |
| 2026-05-04 17:56 | 39.68351 | 3.41078 | 25952 ft | 477 kts | 39° |
| 2026-05-04 17:56 | 39.70845 | 3.43948 | 26357 ft | 480 kts | 39° |
| 2026-05-04 17:57 | 39.73341 | 3.46827 | 26736 ft | 482 kts | 39° |
| 2026-05-04 17:57 | 39.75857 | 3.49738 | 27144 ft | 485 kts | 40° |
| 2026-05-04 17:57 | 39.78383 | 3.52664 | 27543 ft | 487 kts | 40° |
| 2026-05-04 17:57 | 39.80919 | 3.55599 | 27908 ft | 489 kts | 40° |
| 2026-05-04 17:58 | 39.83431 | 3.58504 | 28264 ft | 492 kts | 40° |
| 2026-05-04 17:58 | 39.85997 | 3.61478 | 28623 ft | 495 kts | 40° |
| 2026-05-04 17:58 | 39.88575 | 3.64469 | 28966 ft | 497 kts | 40° |
| 2026-05-04 17:58 | 39.91160 | 3.67469 | 29318 ft | 500 kts | 40° |
| 2026-05-04 17:59 | 39.93755 | 3.70481 | 29657 ft | 503 kts | 40° |
| 2026-05-04 17:59 | 39.96380 | 3.73537 | 29991 ft | 505 kts | 40° |
| 2026-05-04 17:59 | 40.01635 | 3.79672 | 30586 ft | 509 kts | 40° |
| 2026-05-04 18:00 | 40.04289 | 3.82767 | 30837 ft | 512 kts | 40° |
| 2026-05-04 18:00 | 40.06947 | 3.85866 | 31092 ft | 514 kts | 40° |
| 2026-05-04 18:00 | 40.09619 | 3.88982 | 31334 ft | 516 kts | 40° |
| 2026-05-04 18:00 | 40.12295 | 3.92107 | 31642 ft | 517 kts | 40° |
| 2026-05-04 18:01 | 40.14965 | 3.95235 | 32006 ft | 516 kts | 40° |
| 2026-05-04 18:01 | 40.17639 | 3.98376 | 32362 ft | 516 kts | 40° |
| 2026-05-04 18:01 | 40.20309 | 4.01519 | 32749 ft | 515 kts | 40° |
| 2026-05-04 18:02 | 40.25629 | 4.07793 | 33499 ft | 514 kts | 40° |
| 2026-05-04 18:02 | 40.28271 | 4.10911 | 33855 ft | 514 kts | 40° |
| 2026-05-04 18:02 | 40.30931 | 4.14051 | 34176 ft | 513 kts | 40° |
| 2026-05-04 18:02 | 40.33583 | 4.17183 | 34490 ft | 512 kts | 39° |
| 2026-05-04 18:03 | 40.36232 | 4.20312 | 34764 ft | 511 kts | 39° |
| 2026-05-04 18:03 | 40.38834 | 4.23388 | 35069 ft | 511 kts | 39° |
| 2026-05-04 18:03 | 40.41465 | 4.26506 | 35406 ft | 509 kts | 40° |
| 2026-05-04 18:03 | 40.44098 | 4.29633 | 35719 ft | 508 kts | 39° |
| 2026-05-04 18:04 | 40.46784 | 4.32620 | 35905 ft | 505 kts | 32° |
| 2026-05-04 18:04 | 40.49721 | 4.35063 | 35942 ft | 495 kts | 22° |
| 2026-05-04 18:04 | 40.56054 | 4.38094 | 35945 ft | 478 kts | 4° |
| 2026-05-04 18:05 | 40.59314 | 4.38875 | 35939 ft | 476 kts | 3° |
| 2026-05-04 18:05 | 40.65826 | 4.40418 | 35942 ft | 476 kts | 3° |
| 2026-05-04 18:06 | 40.75608 | 4.42784 | 35945 ft | 476 kts | 4° |
| 2026-05-04 18:06 | 40.82126 | 4.44357 | 35947 ft | 476 kts | 3° |
| 2026-05-04 18:07 | 40.88636 | 4.45922 | 35959 ft | 476 kts | 4° |
| 2026-05-04 18:07 | 40.95150 | 4.47486 | 35944 ft | 475 kts | 4° |
| 2026-05-04 18:08 | 41.01618 | 4.49055 | 35943 ft | 475 kts | 4° |
| 2026-05-04 18:08 | 41.08120 | 4.50646 | 35957 ft | 475 kts | 4° |
| 2026-05-04 18:09 | 41.21108 | 4.53816 | 35951 ft | 474 kts | 4° |
| 2026-05-04 18:10 | 41.27598 | 4.55399 | 35959 ft | 474 kts | 4° |
| 2026-05-04 18:10 | 41.34090 | 4.56989 | 35951 ft | 474 kts | 5° |
| 2026-05-04 18:11 | 41.40565 | 4.58580 | 35917 ft | 473 kts | 4° |
| 2026-05-04 18:11 | 41.47046 | 4.60168 | 35921 ft | 474 kts | 4° |
| 2026-05-04 18:12 | 41.53534 | 4.61766 | 35944 ft | 473 kts | 5° |
| 2026-05-04 18:12 | 41.59994 | 4.63365 | 35943 ft | 473 kts | 5° |
| 2026-05-04 18:13 | 41.66471 | 4.64978 | 35937 ft | 473 kts | 5° |
| 2026-05-04 18:13 | 41.72861 | 4.66942 | 35947 ft | 479 kts | 16° |
| 2026-05-04 18:14 | 41.75915 | 4.68749 | 35947 ft | 483 kts | 25° |
| 2026-05-04 18:14 | 41.81705 | 4.73390 | 35943 ft | 484 kts | 28° |
| 2026-05-04 18:15 | 41.91793 | 4.81515 | 35953 ft | 484 kts | 28° |
| 2026-05-04 18:16 | 41.97572 | 4.86167 | 35945 ft | 484 kts | 28° |
| 2026-05-04 18:16 | 42.03353 | 4.90840 | 35939 ft | 484 kts | 28° |
| 2026-05-04 18:17 | 42.12016 | 4.97870 | 35938 ft | 485 kts | 28° |
| 2026-05-04 18:18 | 42.20683 | 5.04920 | 35939 ft | 485 kts | 28° |
| 2026-05-04 18:18 | 42.26464 | 5.09644 | 35945 ft | 485 kts | 28° |
| 2026-05-04 18:19 | 42.35083 | 5.16706 | 35964 ft | 486 kts | 28° |
| 2026-05-04 18:19 | 42.40869 | 5.21452 | 35967 ft | 486 kts | 28° |
| 2026-05-04 18:20 | 42.46638 | 5.26192 | 35964 ft | 485 kts | 28° |
| 2026-05-04 18:20 | 42.52413 | 5.30942 | 35989 ft | 485 kts | 28° |
| 2026-05-04 18:21 | 42.58194 | 5.35721 | 35963 ft | 485 kts | 28° |
| 2026-05-04 18:21 | 42.63960 | 5.40491 | 35965 ft | 485 kts | 28° |
| 2026-05-04 18:22 | 42.69686 | 5.45246 | 35974 ft | 486 kts | 28° |
| 2026-05-04 18:22 | 42.75451 | 5.50041 | 35980 ft | 486 kts | 28° |
| 2026-05-04 18:23 | 42.81221 | 5.54844 | 35983 ft | 486 kts | 28° |
| 2026-05-04 18:23 | 42.86989 | 5.59662 | 35984 ft | 486 kts | 28° |
| 2026-05-04 18:24 | 42.92747 | 5.64489 | 36012 ft | 485 kts | 28° |
| 2026-05-04 18:24 | 42.98502 | 5.69309 | 36012 ft | 485 kts | 28° |
| 2026-05-04 18:25 | 43.04261 | 5.74138 | 35990 ft | 485 kts | 28° |
| 2026-05-04 18:25 | 43.09999 | 5.78976 | 36025 ft | 485 kts | 28° |
| 2026-05-04 18:26 | 43.15730 | 5.83828 | 36019 ft | 484 kts | 28° |
| 2026-05-04 18:26 | 43.21422 | 5.88645 | 36019 ft | 484 kts | 28° |
| 2026-05-04 18:27 | 43.27144 | 5.93491 | 36016 ft | 483 kts | 28° |
| 2026-05-04 18:27 | 43.32858 | 5.98351 | 36031 ft | 483 kts | 29° |
| 2026-05-04 18:28 | 43.38755 | 6.02688 | 36033 ft | 476 kts | 15° |
| 2026-05-04 18:28 | 43.45153 | 6.04613 | 36264 ft | 470 kts | 360° |
| 2026-05-04 18:29 | 43.48405 | 6.05010 | 36528 ft | 469 kts | 359° |
| 2026-05-04 18:29 | 43.51658 | 6.05357 | 36835 ft | 467 kts | 358° |
| 2026-05-04 18:29 | 43.54902 | 6.05664 | 37132 ft | 465 kts | 358° |
| 2026-05-04 18:29 | 43.58122 | 6.05955 | 37423 ft | 464 kts | 358° |
| 2026-05-04 18:30 | 43.64555 | 6.06561 | 37960 ft | 463 kts | 358° |
| 2026-05-04 18:30 | 43.67759 | 6.06883 | 38047 ft | 462 kts | 359° |
| 2026-05-04 18:31 | 43.74168 | 6.07584 | 38033 ft | 462 kts | 2° |
| 2026-05-04 18:31 | 43.80400 | 6.10047 | 38049 ft | 473 kts | 21° |
| 2026-05-04 18:32 | 43.86283 | 6.14047 | 38042 ft | 473 kts | 22° |
| 2026-05-04 18:32 | 43.92181 | 6.18084 | 38043 ft | 472 kts | 22° |
| 2026-05-04 18:33 | 43.98077 | 6.22117 | 38048 ft | 472 kts | 22° |
| 2026-05-04 18:33 | 44.03968 | 6.26156 | 38041 ft | 472 kts | 22° |
| 2026-05-04 18:34 | 44.09858 | 6.30199 | 38069 ft | 472 kts | 22° |
| 2026-05-04 18:34 | 44.15749 | 6.34246 | 38059 ft | 472 kts | 23° |
| 2026-05-04 18:35 | 44.21633 | 6.38293 | 38063 ft | 471 kts | 23° |
| 2026-05-04 18:35 | 44.27473 | 6.42330 | 38083 ft | 471 kts | 23° |
| 2026-05-04 18:36 | 44.33353 | 6.46410 | 38089 ft | 471 kts | 23° |
| 2026-05-04 18:36 | 44.39220 | 6.50478 | 38074 ft | 472 kts | 22° |
| 2026-05-04 18:37 | 44.45107 | 6.54575 | 38114 ft | 472 kts | 23° |
| 2026-05-04 18:37 | 44.50987 | 6.58679 | 38119 ft | 472 kts | 23° |
| 2026-05-04 18:38 | 44.56870 | 6.62791 | 38115 ft | 472 kts | 23° |
| 2026-05-04 18:38 | 44.62711 | 6.66870 | 38119 ft | 472 kts | 23° |
| 2026-05-04 18:39 | 44.68630 | 6.71024 | 38138 ft | 472 kts | 23° |
| 2026-05-04 18:39 | 44.74465 | 6.75136 | 38134 ft | 472 kts | 23° |
| 2026-05-04 18:40 | 44.80588 | 6.78159 | 38154 ft | 463 kts | 6° |
| 2026-05-04 18:40 | 44.86930 | 6.78584 | 38140 ft | 453 kts | 352° |
| 2026-05-04 18:41 | 44.93243 | 6.78166 | 38131 ft | 454 kts | 352° |
| 2026-05-04 18:41 | 44.99524 | 6.77755 | 38145 ft | 454 kts | 352° |
| 2026-05-04 18:42 | 45.05847 | 6.77336 | 38150 ft | 454 kts | 352° |
| 2026-05-04 18:42 | 45.12148 | 6.76916 | 38145 ft | 454 kts | 352° |
| 2026-05-04 18:43 | 45.18425 | 6.76499 | 38142 ft | 454 kts | 352° |
| 2026-05-04 18:43 | 45.24741 | 6.76091 | 38136 ft | 454 kts | 352° |
| 2026-05-04 18:44 | 45.31050 | 6.75675 | 38124 ft | 453 kts | 352° |
| 2026-05-04 18:44 | 45.37354 | 6.75250 | 38114 ft | 454 kts | 352° |
| 2026-05-04 18:45 | 45.43664 | 6.74823 | 38113 ft | 454 kts | 352° |
| 2026-05-04 18:45 | 45.49974 | 6.74392 | 38109 ft | 453 kts | 352° |
| 2026-05-04 18:46 | 45.56229 | 6.73959 | 38099 ft | 454 kts | 352° |
| 2026-05-04 18:46 | 45.62550 | 6.73527 | 38112 ft | 454 kts | 352° |
| 2026-05-04 18:47 | 45.68840 | 6.73103 | 38070 ft | 453 kts | 353° |
| 2026-05-04 18:47 | 45.75147 | 6.72673 | 38069 ft | 453 kts | 352° |
| 2026-05-04 18:48 | 45.81445 | 6.72231 | 38082 ft | 453 kts | 353° |
| 2026-05-04 18:48 | 45.87740 | 6.71799 | 38077 ft | 452 kts | 352° |
| 2026-05-04 18:49 | 45.94036 | 6.71367 | 38075 ft | 453 kts | 352° |
| 2026-05-04 18:49 | 46.00294 | 6.70935 | 38053 ft | 454 kts | 352° |
| 2026-05-04 18:50 | 46.06621 | 6.70512 | 38034 ft | 455 kts | 352° |
| 2026-05-04 18:50 | 46.12966 | 6.70591 | 38036 ft | 461 kts | 4° |
| 2026-05-04 18:51 | 46.19226 | 6.72891 | 38037 ft | 466 kts | 13° |
| 2026-05-04 18:51 | 46.25454 | 6.75531 | 38034 ft | 466 kts | 13° |
| 2026-05-04 18:52 | 46.31682 | 6.78161 | 38035 ft | 466 kts | 13° |
| 2026-05-04 18:52 | 46.37913 | 6.80804 | 38032 ft | 466 kts | 13° |
| 2026-05-04 18:53 | 46.44121 | 6.83453 | 38038 ft | 465 kts | 13° |
| 2026-05-04 18:53 | 46.50341 | 6.86123 | 38015 ft | 465 kts | 15° |
| 2026-05-04 18:53 | 46.53329 | 6.87925 | 38029 ft | 468 kts | 26° |
| 2026-05-04 18:54 | 46.56070 | 6.90399 | 38040 ft | 470 kts | 36° |
| 2026-05-04 18:54 | 46.60681 | 6.97188 | 38042 ft | 470 kts | 51° |
| 2026-05-04 18:55 | 46.64787 | 7.04600 | 38036 ft | 470 kts | 51° |
| 2026-05-04 18:55 | 46.70917 | 7.15684 | 38035 ft | 471 kts | 51° |
| 2026-05-04 18:56 | 46.75039 | 7.23163 | 38046 ft | 470 kts | 51° |
| 2026-05-04 18:56 | 46.79115 | 7.30574 | 38043 ft | 470 kts | 51° |
| 2026-05-04 18:57 | 46.83206 | 7.38027 | 38027 ft | 470 kts | 50° |
| 2026-05-04 18:57 | 46.87290 | 7.45498 | 38039 ft | 470 kts | 51° |
| 2026-05-04 18:58 | 46.91354 | 7.52966 | 38027 ft | 470 kts | 51° |
| 2026-05-04 18:58 | 46.95420 | 7.60458 | 38032 ft | 469 kts | 51° |
| 2026-05-04 18:59 | 46.99468 | 7.67939 | 38034 ft | 469 kts | 51° |
| 2026-05-04 18:59 | 47.03511 | 7.75427 | 38028 ft | 468 kts | 51° |
| 2026-05-04 19:00 | 47.07537 | 7.82900 | 38025 ft | 468 kts | 51° |
| 2026-05-04 19:00 | 47.11574 | 7.90417 | 38033 ft | 468 kts | 51° |
| 2026-05-04 19:01 | 47.15315 | 7.98236 | 38010 ft | 468 kts | 58° |
| 2026-05-04 19:01 | 47.17036 | 8.02280 | 37709 ft | 467 kts | 58° |
| 2026-05-04 19:01 | 47.18758 | 8.06324 | 37102 ft | 467 kts | 58° |
| 2026-05-04 19:02 | 47.20484 | 8.10374 | 36427 ft | 467 kts | 58° |
| 2026-05-04 19:02 | 47.22188 | 8.14374 | 36086 ft | 466 kts | 58° |
| 2026-05-04 19:02 | 47.25621 | 8.22441 | 36022 ft | 468 kts | 58° |
| 2026-05-04 19:03 | 47.29275 | 8.30364 | 36009 ft | 467 kts | 47° |
| 2026-05-04 19:03 | 47.31622 | 8.33619 | 36021 ft | 465 kts | 36° |
| 2026-05-04 19:03 | 47.34329 | 8.36201 | 36011 ft | 462 kts | 25° |
| 2026-05-04 19:04 | 47.40132 | 8.40314 | 36001 ft | 462 kts | 24° |
| 2026-05-04 19:04 | 47.45929 | 8.44417 | 36013 ft | 462 kts | 24° |
| 2026-05-04 19:05 | 47.50753 | 8.47835 | 35998 ft | 462 kts | 24° |
| 2026-05-04 19:05 | 47.56541 | 8.51947 | 36000 ft | 462 kts | 24° |
| 2026-05-04 19:06 | 47.62334 | 8.56086 | 36002 ft | 462 kts | 24° |
| 2026-05-04 19:06 | 47.68117 | 8.60227 | 36002 ft | 462 kts | 24° |
| 2026-05-04 19:07 | 47.73906 | 8.64375 | 36000 ft | 462 kts | 24° |
| 2026-05-04 19:07 | 47.79703 | 8.68525 | 36001 ft | 462 kts | 24° |
| 2026-05-04 19:08 | 47.85462 | 8.72661 | 35997 ft | 462 kts | 24° |
| 2026-05-04 19:08 | 47.91256 | 8.76845 | 35997 ft | 462 kts | 25° |
| 2026-05-04 19:09 | 47.97041 | 8.81037 | 35996 ft | 462 kts | 25° |
| 2026-05-04 19:09 | 48.02822 | 8.85242 | 35994 ft | 462 kts | 25° |
| 2026-05-04 19:10 | 48.08603 | 8.89443 | 35993 ft | 462 kts | 25° |
| 2026-05-04 19:10 | 48.14403 | 8.93611 | 35994 ft | 462 kts | 21° |
| 2026-05-04 19:11 | 48.20584 | 8.95942 | 35991 ft | 457 kts | 3° |
| 2026-05-04 19:11 | 48.26925 | 8.96878 | 35991 ft | 458 kts | 3° |
| 2026-05-04 19:12 | 48.36433 | 8.98324 | 35992 ft | 459 kts | 4° |
| 2026-05-04 19:13 | 48.42791 | 8.99300 | 35990 ft | 459 kts | 4° |
| 2026-05-04 19:13 | 48.49104 | 9.00263 | 35991 ft | 459 kts | 4° |
| 2026-05-04 19:14 | 48.55504 | 9.01231 | 35980 ft | 459 kts | 4° |
| 2026-05-04 19:14 | 48.61820 | 9.02196 | 35977 ft | 459 kts | 4° |
| 2026-05-04 19:15 | 48.68154 | 9.03410 | 35976 ft | 460 kts | 7° |
| 2026-05-04 19:15 | 48.74469 | 9.05013 | 35977 ft | 460 kts | 8° |
| 2026-05-04 19:16 | 48.80776 | 9.06654 | 35979 ft | 460 kts | 7° |
| 2026-05-04 19:16 | 48.87096 | 9.08195 | 35979 ft | 460 kts | 7° |
| 2026-05-04 19:16 | 48.90269 | 9.08888 | 35766 ft | 461 kts | 5° |
| 2026-05-04 19:17 | 48.93432 | 9.09417 | 35338 ft | 455 kts | 3° |
| 2026-05-04 19:17 | 48.96576 | 9.09828 | 34870 ft | 451 kts | 2° |
| 2026-05-04 19:17 | 48.99695 | 9.10186 | 34393 ft | 448 kts | 2° |
| 2026-05-04 19:17 | 49.02792 | 9.10542 | 33913 ft | 445 kts | 2° |
| 2026-05-04 19:18 | 49.05878 | 9.10924 | 33368 ft | 442 kts | 2° |
| 2026-05-04 19:18 | 49.08895 | 9.11327 | 32860 ft | 439 kts | 3° |
| 2026-05-04 19:18 | 49.11965 | 9.11757 | 32348 ft | 436 kts | 3° |
| 2026-05-04 19:18 | 49.14942 | 9.12190 | 31856 ft | 434 kts | 3° |
| 2026-05-04 19:19 | 49.17937 | 9.12638 | 31385 ft | 431 kts | 3° |
| 2026-05-04 19:19 | 49.20909 | 9.13081 | 30926 ft | 427 kts | 3° |
| 2026-05-04 19:19 | 49.23853 | 9.13514 | 30462 ft | 424 kts | 3° |
| 2026-05-04 19:19 | 49.26780 | 9.13942 | 29989 ft | 421 kts | 3° |
| 2026-05-04 19:20 | 49.29665 | 9.14619 | 29466 ft | 420 kts | 11° |
| 2026-05-04 19:20 | 49.32514 | 9.15612 | 28953 ft | 417 kts | 11° |
| 2026-05-04 19:20 | 49.35331 | 9.16605 | 28474 ft | 414 kts | 11° |
| 2026-05-04 19:20 | 49.38126 | 9.17598 | 27895 ft | 408 kts | 11° |
| 2026-05-04 19:21 | 49.40874 | 9.18579 | 27114 ft | 403 kts | 11° |
| 2026-05-04 19:21 | 49.43578 | 9.19547 | 26354 ft | 397 kts | 11° |
| 2026-05-04 19:21 | 49.46254 | 9.20502 | 25609 ft | 393 kts | 11° |
| 2026-05-04 19:21 | 49.48905 | 9.21445 | 24882 ft | 388 kts | 11° |
| 2026-05-04 19:22 | 49.51518 | 9.22370 | 24165 ft | 384 kts | 11° |
| 2026-05-04 19:22 | 49.54080 | 9.23275 | 23461 ft | 380 kts | 11° |
| 2026-05-04 19:22 | 49.56640 | 9.24180 | 22669 ft | 375 kts | 11° |
| 2026-05-04 19:22 | 49.59167 | 9.25065 | 21925 ft | 370 kts | 11° |
| 2026-05-04 19:23 | 49.61661 | 9.25951 | 21229 ft | 366 kts | 11° |
| 2026-05-04 19:23 | 49.64121 | 9.26837 | 20537 ft | 361 kts | 12° |
| 2026-05-04 19:23 | 49.66552 | 9.27722 | 19868 ft | 356 kts | 12° |
| 2026-05-04 19:23 | 49.68951 | 9.28599 | 19256 ft | 352 kts | 12° |
| 2026-05-04 19:24 | 49.71328 | 9.29464 | 19028 ft | 351 kts | 12° |
| 2026-05-04 19:24 | 49.73700 | 9.30321 | 18971 ft | 351 kts | 12° |
| 2026-05-04 19:24 | 49.76085 | 9.31176 | 18985 ft | 353 kts | 12° |
| 2026-05-04 19:24 | 49.78483 | 9.32033 | 18984 ft | 352 kts | 12° |
| 2026-05-04 19:25 | 49.80860 | 9.32885 | 18780 ft | 349 kts | 12° |
| 2026-05-04 19:25 | 49.83242 | 9.33415 | 18428 ft | 343 kts | 353° |
| 2026-05-04 19:25 | 49.85477 | 9.32404 | 18055 ft | 332 kts | 324° |
| 2026-05-04 19:25 | 49.87071 | 9.29968 | 17632 ft | 319 kts | 295° |
| 2026-05-04 19:26 | 49.87826 | 9.26789 | 17197 ft | 314 kts | 282° |
| 2026-05-04 19:26 | 49.88425 | 9.23531 | 16801 ft | 314 kts | 283° |
| 2026-05-04 19:26 | 49.89028 | 9.20286 | 16430 ft | 312 kts | 283° |
| 2026-05-04 19:26 | 49.89632 | 9.17069 | 16074 ft | 308 kts | 283° |
| 2026-05-04 19:27 | 49.90235 | 9.13895 | 15461 ft | 305 kts | 283° |
| 2026-05-04 19:27 | 49.90831 | 9.10752 | 14850 ft | 302 kts | 283° |
| 2026-05-04 19:27 | 49.91421 | 9.07641 | 14272 ft | 299 kts | 283° |
| 2026-05-04 19:27 | 49.92007 | 9.04565 | 13688 ft | 296 kts | 283° |
| 2026-05-04 19:28 | 49.92587 | 9.01523 | 13041 ft | 293 kts | 283° |
| 2026-05-04 19:28 | 49.93160 | 8.98497 | 12390 ft | 290 kts | 283° |
| 2026-05-04 19:28 | 49.93722 | 8.95503 | 11750 ft | 288 kts | 283° |
| 2026-05-04 19:28 | 49.94293 | 8.92531 | 11130 ft | 286 kts | 287° |
| 2026-05-04 19:29 | 49.95319 | 8.89938 | 10520 ft | 290 kts | 311° |
| 2026-05-04 19:29 | 49.96990 | 8.88184 | 9901 ft | 295 kts | 336° |
| 2026-05-04 19:29 | 49.99017 | 8.87668 | 9207 ft | 298 kts | 3° |
| 2026-05-04 19:29 | 50.00991 | 8.88539 | 8546 ft | 296 kts | 30° |
| 2026-05-04 19:30 | 50.02520 | 8.90605 | 7895 ft | 290 kts | 57° |
| 2026-05-04 19:30 | 50.03369 | 8.93401 | 7234 ft | 284 kts | 74° |
| 2026-05-04 19:30 | 50.04013 | 8.96292 | 6578 ft | 282 kts | 73° |
| 2026-05-04 19:30 | 50.04672 | 8.99149 | 5928 ft | 279 kts | 72° |
| 2026-05-04 19:31 | 50.05354 | 9.01948 | 5282 ft | 275 kts | 66° |
| 2026-05-04 19:31 | 50.06517 | 9.04252 | 4655 ft | 271 kts | 37° |
| 2026-05-04 19:31 | 50.08216 | 9.05391 | 4134 ft | 266 kts | 6° |
| 2026-05-04 19:31 | 50.10003 | 9.05156 | 4000 ft | 252 kts | 346° |
| 2026-05-04 19:32 | 50.11636 | 9.04438 | 4012 ft | 238 kts | 334° |
| 2026-05-04 19:32 | 50.12884 | 9.02823 | 4017 ft | 234 kts | 301° |
| 2026-05-04 19:32 | 50.13415 | 9.00465 | 4015 ft | 233 kts | 277° |
| 2026-05-04 19:32 | 50.13475 | 8.97958 | 4018 ft | 232 kts | 259° |
| 2026-05-04 19:33 | 50.12910 | 8.95628 | 4018 ft | 230 kts | 242° |
| 2026-05-04 19:33 | 50.12252 | 8.93429 | 4009 ft | 217 kts | 246° |
| 2026-05-04 19:33 | 50.11720 | 8.91297 | 4007 ft | 206 kts | 249° |
| 2026-05-04 19:33 | 50.11240 | 8.89263 | 4039 ft | 196 kts | 249° |
| 2026-05-04 19:34 | 50.10775 | 8.87280 | 4011 ft | 195 kts | 249° |
| 2026-05-04 19:34 | 50.10309 | 8.85300 | 3881 ft | 192 kts | 249° |
| 2026-05-04 19:34 | 50.09854 | 8.83366 | 3655 ft | 189 kts | 249° |
| 2026-05-04 19:34 | 50.09410 | 8.81479 | 3424 ft | 188 kts | 249° |
| 2026-05-04 19:35 | 50.08958 | 8.79564 | 3178 ft | 188 kts | 250° |
| 2026-05-04 19:35 | 50.08509 | 8.77659 | 2924 ft | 187 kts | 250° |
| 2026-05-04 19:35 | 50.08062 | 8.75768 | 2680 ft | 187 kts | 250° |
| 2026-05-04 19:35 | 50.07619 | 8.73866 | 2422 ft | 186 kts | 252° |
| 2026-05-04 19:36 | 50.07327 | 8.71935 | 2178 ft | 175 kts | 263° |
| 2026-05-04 19:36 | 50.07170 | 8.70186 | 1997 ft | 152 kts | 262° |
| 2026-05-04 19:36 | 50.06875 | 8.68666 | 1774 ft | 144 kts | 251° |
| 2026-05-04 19:36 | 50.06518 | 8.67216 | 1554 ft | 145 kts | 251° |
| 2026-05-04 19:37 | 50.06185 | 8.65703 | 1416 ft | 149 kts | 253° |
| 2026-05-04 19:37 | 50.05820 | 8.64200 | 1180 ft | 146 kts | 249° |
| 2026-05-04 19:37 | 50.05463 | 8.62763 | 949 ft | 140 kts | 251° |
| 2026-05-04 19:37 | 50.05138 | 8.61360 | 792 ft | 135 kts | 250° |
| 2026-05-04 19:38 | 50.04820 | 8.59990 | 620 ft | 134 kts | 251° |
| 2026-05-04 19:38 | 50.04494 | 8.58635 | 411 ft | 133 kts | 250° |
| 2026-05-04 19:38 | 50.04197 | 8.57381 | 368 ft | 104 kts | 250° |
| 2026-05-04 19:38 | 50.04000 | 8.56549 | 359 ft | 65 kts | 250° |
| 2026-05-04 19:39 | 50.03893 | 8.56084 | 359 ft | 31 kts | 257° |
| 2026-05-04 19:39 | 50.03891 | 8.55822 | 350 ft | 15 kts | 278° |
| 2026-05-04 19:39 | 50.03903 | 8.55694 | 348 ft | 9 kts | 280° |
| 2026-05-04 19:39 | 50.03904 | 8.55685 | 348 ft | 0 kts | 281° |
| 2026-05-04 19:41 | 50.03907 | 8.55668 | 357 ft | 2 kts | 282° |
| 2026-05-04 19:41 | 50.03909 | 8.55651 | 348 ft | 1 kts | 281° |
| 2026-05-04 19:41 | 50.03909 | 8.55649 | 353 ft | 0 kts | 281° |
| 2026-05-04 19:42 | 50.03920 | 8.55627 | 355 ft | 10 kts | 321° |
| 2026-05-04 19:43 | 50.03985 | 8.55679 | 354 ft | 11 kts | 68° |
| 2026-05-04 19:43 | 50.04008 | 8.55784 | 351 ft | 10 kts | 70° |
| 2026-05-04 19:43 | 50.04045 | 8.55935 | 357 ft | 17 kts | 69° |
| 2026-05-04 19:43 | 50.04091 | 8.56128 | 357 ft | 20 kts | 69° |
| 2026-05-04 19:44 | 50.04143 | 8.56344 | 361 ft | 22 kts | 70° |
| 2026-05-04 19:44 | 50.04196 | 8.56570 | 355 ft | 18 kts | 70° |
| 2026-05-04 19:44 | 50.04219 | 8.56664 | 364 ft | 0 kts | 69° |
| 2026-05-04 19:45 | 50.04238 | 8.56742 | 359 ft | 16 kts | 68° |
| 2026-05-04 19:45 | 50.04321 | 8.56821 | 360 ft | 14 kts | 12° |
| 2026-05-04 19:45 | 50.04414 | 8.56847 | 364 ft | 13 kts | 8° |
| 2026-05-04 19:46 | 50.04464 | 8.56912 | 359 ft | 8 kts | 100° |
| 2026-05-04 19:46 | 50.04422 | 8.56946 | 363 ft | 6 kts | 159° |
| 2026-05-04 19:46 | 50.04386 | 8.56967 | 361 ft | 5 kts | 160° |
| 2026-05-04 19:46 | 50.04379 | 8.56970 | 360 ft | 0 kts | 160° |